sensor_id;sensor_type;location;lat;lon;timestamp;temperature;humidity
20856;DHT22;63058;49.424;8.420;2023-05-10T00:02:25;16.90;99.90
20856;DHT22;63058;49.424;8.420;2023-05-10T00:04:52;16.90;99.90
20856;DHT22;63058;49.424;8.420;2023-05-10T00:07:18;16.80;99.90
20856;DHT22;63058;49.424;8.420;2023-05-10T00:09:43;16.80;99.90
20856;DHT22;63058;49.424;8.420;2023-05-10T00:12:09;16.80;99.90
20856;DHT22;63058;49.424;8.420;2023-05-10T00:14:35;16.80;99.90
20856;DHT22;63058;49.424;8.420;2023-05-10T00:17:01;16.80;99.90
20856;DHT22;63058;49.424;8.420;2023-05-10T00:19:26;16.70;99.90
20856;DHT22;63058;49.424;8.420;2023-05-10T00:21:52;16.70;99.90
20856;DHT22;63058;49.424;8.420;2023-05-10T00:24:18;16.60;99.90
20856;DHT22;63058;49.424;8.420;2023-05-10T00:26:43;16.60;99.90
20856;DHT22;63058;49.424;8.420;2023-05-10T00:29:10;16.50;99.90
20856;DHT22;63058;49.424;8.420;2023-05-10T00:31:35;16.50;99.90
20856;DHT22;63058;49.424;8.420;2023-05-10T00:34:01;16.40;99.90
20856;DHT22;63058;49.424;8.420;2023-05-10T00:36:26;16.40;99.90
20856;DHT22;63058;49.424;8.420;2023-05-10T00:38:53;16.40;99.90
20856;DHT22;63058;49.424;8.420;2023-05-10T00:41:19;16.40;99.90
20856;DHT22;63058;49.424;8.420;2023-05-10T00:43:46;16.40;99.90
20856;DHT22;63058;49.424;8.420;2023-05-10T00:46:12;16.50;99.90
20856;DHT22;63058;49.424;8.420;2023-05-10T00:48:39;16.50;99.90
20856;DHT22;63058;49.424;8.420;2023-05-10T00:51:05;16.50;99.90
20856;DHT22;63058;49.424;8.420;2023-05-10T00:53:31;16.60;99.90
20856;DHT22;63058;49.424;8.420;2023-05-10T00:55:58;16.60;99.90
20856;DHT22;63058;49.424;8.420;2023-05-10T00:58:25;16.70;99.90
20856;DHT22;63058;49.424;8.420;2023-05-10T01:00:54;16.70;99.90
20856;DHT22;63058;49.424;8.420;2023-05-10T01:03:21;16.70;99.90
20856;DHT22;63058;49.424;8.420;2023-05-10T01:05:47;16.80;99.90
20856;DHT22;63058;49.424;8.420;2023-05-10T01:08:13;16.80;99.90
20856;DHT22;63058;49.424;8.420;2023-05-10T01:10:38;16.80;99.90
20856;DHT22;63058;49.424;8.420;2023-05-10T01:13:04;16.80;99.90
20856;DHT22;63058;49.424;8.420;2023-05-10T01:15:31;16.80;99.90
20856;DHT22;63058;49.424;8.420;2023-05-10T01:17:57;16.80;99.90
20856;DHT22;63058;49.424;8.420;2023-05-10T01:20:23;16.80;99.90
20856;DHT22;63058;49.424;8.420;2023-05-10T01:23:12;16.80;99.90
20856;DHT22;63058;49.424;8.420;2023-05-10T01:26:17;16.80;99.90
20856;DHT22;63058;49.424;8.420;2023-05-10T01:34:46;16.80;99.90
20856;DHT22;63058;49.424;8.420;2023-05-10T01:37:17;16.90;99.90
20856;DHT22;63058;49.424;8.420;2023-05-10T01:40:08;16.90;99.90
20856;DHT22;63058;49.424;8.420;2023-05-10T01:42:43;16.90;99.90
20856;DHT22;63058;49.424;8.420;2023-05-10T01:45:31;16.90;99.90
20856;DHT22;63058;49.424;8.420;2023-05-10T01:48:09;16.90;99.90
20856;DHT22;63058;49.424;8.420;2023-05-10T01:50:38;16.80;99.90
20856;DHT22;63058;49.424;8.420;2023-05-10T01:53:07;16.80;99.90
20856;DHT22;63058;49.424;8.420;2023-05-10T01:55:39;16.70;99.90
20856;DHT22;63058;49.424;8.420;2023-05-10T01:58:10;16.70;99.90
20856;DHT22;63058;49.424;8.420;2023-05-10T02:00:42;16.70;99.90
20856;DHT22;63058;49.424;8.420;2023-05-10T02:03:08;16.70;99.90
20856;DHT22;63058;49.424;8.420;2023-05-10T02:05:36;16.70;99.90
20856;DHT22;63058;49.424;8.420;2023-05-10T02:08:06;16.60;99.90
20856;DHT22;63058;49.424;8.420;2023-05-10T02:10:36;16.60;99.90
20856;DHT22;63058;49.424;8.420;2023-05-10T02:13:03;16.60;99.90
20856;DHT22;63058;49.424;8.420;2023-05-10T02:15:32;16.60;99.90
20856;DHT22;63058;49.424;8.420;2023-05-10T02:18:00;16.50;99.90
20856;DHT22;63058;49.424;8.420;2023-05-10T02:20:26;16.50;99.90
20856;DHT22;63058;49.424;8.420;2023-05-10T02:22:54;16.50;99.90
20856;DHT22;63058;49.424;8.420;2023-05-10T02:25:22;16.40;99.90
20856;DHT22;63058;49.424;8.420;2023-05-10T02:27:48;16.30;99.90
20856;DHT22;63058;49.424;8.420;2023-05-10T02:30:15;16.30;99.90
20856;DHT22;63058;49.424;8.420;2023-05-10T02:32:42;16.30;99.90
20856;DHT22;63058;49.424;8.420;2023-05-10T02:35:09;16.20;99.90
20856;DHT22;63058;49.424;8.420;2023-05-10T02:37:37;16.20;99.90
20856;DHT22;63058;49.424;8.420;2023-05-10T02:40:05;16.20;99.90
20856;DHT22;63058;49.424;8.420;2023-05-10T02:42:33;16.20;99.90
20856;DHT22;63058;49.424;8.420;2023-05-10T02:45:02;16.20;99.90
20856;DHT22;63058;49.424;8.420;2023-05-10T02:47:29;16.20;99.90
20856;DHT22;63058;49.424;8.420;2023-05-10T02:49:55;16.20;99.90
20856;DHT22;63058;49.424;8.420;2023-05-10T02:52:27;16.20;99.90
20856;DHT22;63058;49.424;8.420;2023-05-10T02:55:01;16.20;99.90
20856;DHT22;63058;49.424;8.420;2023-05-10T02:57:32;16.20;99.90
20856;DHT22;63058;49.424;8.420;2023-05-10T02:59:59;16.20;99.90
20856;DHT22;63058;49.424;8.420;2023-05-10T03:02:25;16.30;99.90
20856;DHT22;63058;49.424;8.420;2023-05-10T03:04:51;16.30;99.90
20856;DHT22;63058;49.424;8.420;2023-05-10T03:07:17;16.30;99.90
20856;DHT22;63058;49.424;8.420;2023-05-10T03:09:47;16.40;99.90
20856;DHT22;63058;49.424;8.420;2023-05-10T03:18:37;16.30;99.90
20856;DHT22;63058;49.424;8.420;2023-05-10T03:21:07;16.30;99.90
20856;DHT22;63058;49.424;8.420;2023-05-10T03:23:44;16.30;99.90
20856;DHT22;63058;49.424;8.420;2023-05-10T03:26:17;16.30;99.90
20856;DHT22;63058;49.424;8.420;2023-05-10T03:28:46;16.20;99.90
20856;DHT22;63058;49.424;8.420;2023-05-10T03:31:13;16.20;99.90
20856;DHT22;63058;49.424;8.420;2023-05-10T03:33:48;16.20;99.90
20856;DHT22;63058;49.424;8.420;2023-05-10T03:36:14;16.20;99.90
20856;DHT22;63058;49.424;8.420;2023-05-10T03:38:40;16.20;99.90
20856;DHT22;63058;49.424;8.420;2023-05-10T03:41:06;16.10;99.90
20856;DHT22;63058;49.424;8.420;2023-05-10T03:43:31;16.20;99.90
20856;DHT22;63058;49.424;8.420;2023-05-10T03:45:57;16.10;99.90
20856;DHT22;63058;49.424;8.420;2023-05-10T03:48:23;16.10;99.90
20856;DHT22;63058;49.424;8.420;2023-05-10T03:50:48;16.10;99.90
20856;DHT22;63058;49.424;8.420;2023-05-10T03:53:17;16.10;99.90
20856;DHT22;63058;49.424;8.420;2023-05-10T03:55:42;16.10;99.90
20856;DHT22;63058;49.424;8.420;2023-05-10T03:58:10;16.10;99.90
20856;DHT22;63058;49.424;8.420;2023-05-10T04:00:36;16.00;99.90
20856;DHT22;63058;49.424;8.420;2023-05-10T04:03:02;16.00;99.90
20856;DHT22;63058;49.424;8.420;2023-05-10T04:05:28;16.00;99.90
20856;DHT22;63058;49.424;8.420;2023-05-10T04:07:54;15.90;99.90
20856;DHT22;63058;49.424;8.420;2023-05-10T04:10:20;15.90;99.90
20856;DHT22;63058;49.424;8.420;2023-05-10T04:12:46;15.90;99.90
20856;DHT22;63058;49.424;8.420;2023-05-10T04:15:12;15.80;99.90
20856;DHT22;63058;49.424;8.420;2023-05-10T04:17:37;15.80;99.90
20856;DHT22;63058;49.424;8.420;2023-05-10T04:20:03;15.70;99.90
20856;DHT22;63058;49.424;8.420;2023-05-10T04:22:29;15.70;99.90
20856;DHT22;63058;49.424;8.420;2023-05-10T04:24:55;15.70;99.90
20856;DHT22;63058;49.424;8.420;2023-05-10T04:27:21;15.60;99.90
20856;DHT22;63058;49.424;8.420;2023-05-10T04:29:47;15.70;99.90
20856;DHT22;63058;49.424;8.420;2023-05-10T04:32:12;15.60;99.90
20856;DHT22;63058;49.424;8.420;2023-05-10T04:34:38;15.60;99.90
20856;DHT22;63058;49.424;8.420;2023-05-10T04:37:04;15.70;99.90
20856;DHT22;63058;49.424;8.420;2023-05-10T04:39:29;15.70;99.90
20856;DHT22;63058;49.424;8.420;2023-05-10T04:41:55;15.70;99.90
20856;DHT22;63058;49.424;8.420;2023-05-10T04:44:20;15.70;99.90
20856;DHT22;63058;49.424;8.420;2023-05-10T04:46:46;15.70;99.90
20856;DHT22;63058;49.424;8.420;2023-05-10T04:49:12;15.80;99.90
20856;DHT22;63058;49.424;8.420;2023-05-10T04:51:37;15.90;99.90
20856;DHT22;63058;49.424;8.420;2023-05-10T04:54:03;15.90;99.90
20856;DHT22;63058;49.424;8.420;2023-05-10T04:56:28;16.00;99.90
20856;DHT22;63058;49.424;8.420;2023-05-10T11:00:36;22.20;99.90
20856;DHT22;63058;49.424;8.420;2023-05-10T11:03:11;22.40;99.90
20856;DHT22;63058;49.424;8.420;2023-05-10T11:10:53;22.70;99.90
20856;DHT22;63058;49.424;8.420;2023-05-10T11:15:55;22.70;99.90
20856;DHT22;63058;49.424;8.420;2023-05-10T11:18:29;22.70;99.40
20856;DHT22;63058;49.424;8.420;2023-05-10T11:21:00;22.60;97.70
20856;DHT22;63058;49.424;8.420;2023-05-10T11:23:52;22.40;97.10
20856;DHT22;63058;49.424;8.420;2023-05-10T11:26:25;22.30;97.90
20856;DHT22;63058;49.424;8.420;2023-05-10T11:28:53;22.20;99.50
20856;DHT22;63058;49.424;8.420;2023-05-10T11:31:21;22.20;99.50
20856;DHT22;63058;49.424;8.420;2023-05-10T11:33:49;22.20;99.90
20856;DHT22;63058;49.424;8.420;2023-05-10T11:36:21;22.30;99.90
20856;DHT22;63058;49.424;8.420;2023-05-10T11:38:47;22.40;99.90
20856;DHT22;63058;49.424;8.420;2023-05-10T11:41:13;22.60;99.90
20856;DHT22;63058;49.424;8.420;2023-05-10T11:43:39;22.70;99.90
20856;DHT22;63058;49.424;8.420;2023-05-10T11:46:11;22.80;99.90
20856;DHT22;63058;49.424;8.420;2023-05-10T11:48:39;22.90;99.90
20856;DHT22;63058;49.424;8.420;2023-05-10T11:51:06;23.00;99.30
20856;DHT22;63058;49.424;8.420;2023-05-10T11:53:32;23.00;99.50
20856;DHT22;63058;49.424;8.420;2023-05-10T11:56:09;22.90;99.70
20856;DHT22;63058;49.424;8.420;2023-05-10T11:58:36;22.80;97.30
20856;DHT22;63058;49.424;8.420;2023-05-10T12:01:03;22.70;98.80
20856;DHT22;63058;49.424;8.420;2023-05-10T12:03:30;22.60;99.50
20856;DHT22;63058;49.424;8.420;2023-05-10T12:05:56;22.60;99.90
20856;DHT22;63058;49.424;8.420;2023-05-10T12:08:24;22.50;99.90
20856;DHT22;63058;49.424;8.420;2023-05-10T12:10:51;22.50;99.90
20856;DHT22;63058;49.424;8.420;2023-05-10T12:13:17;22.50;99.90
20856;DHT22;63058;49.424;8.420;2023-05-10T12:15:43;22.60;99.90
20856;DHT22;63058;49.424;8.420;2023-05-10T12:18:10;22.60;99.90
20856;DHT22;63058;49.424;8.420;2023-05-10T12:20:37;22.70;99.90
20856;DHT22;63058;49.424;8.420;2023-05-10T12:23:03;22.70;99.90
20856;DHT22;63058;49.424;8.420;2023-05-10T12:25:36;22.70;99.30
20856;DHT22;63058;49.424;8.420;2023-05-10T12:28:04;22.70;99.50
20856;DHT22;63058;49.424;8.420;2023-05-10T12:30:32;22.80;99.90
20856;DHT22;63058;49.424;8.420;2023-05-10T12:33:02;22.80;99.90
20856;DHT22;63058;49.424;8.420;2023-05-10T12:35:31;22.80;99.90
20856;DHT22;63058;49.424;8.420;2023-05-10T12:37:57;22.90;99.90
20856;DHT22;63058;49.424;8.420;2023-05-10T12:40:23;23.00;99.90
20856;DHT22;63058;49.424;8.420;2023-05-10T12:42:49;23.00;99.90
20856;DHT22;63058;49.424;8.420;2023-05-10T12:45:15;23.20;99.90
20856;DHT22;63058;49.424;8.420;2023-05-10T12:47:42;23.30;99.90
20856;DHT22;63058;49.424;8.420;2023-05-10T12:50:08;23.40;99.90
20856;DHT22;63058;49.424;8.420;2023-05-10T12:52:34;23.60;99.90
20856;DHT22;63058;49.424;8.420;2023-05-10T12:55:00;23.80;99.90
20856;DHT22;63058;49.424;8.420;2023-05-10T12:57:26;24.00;99.90
20856;DHT22;63058;49.424;8.420;2023-05-10T12:59:53;24.10;99.50
20856;DHT22;63058;49.424;8.420;2023-05-10T13:02:19;24.30;98.90
20856;DHT22;63058;49.424;8.420;2023-05-10T13:04:45;24.40;98.80
20856;DHT22;63058;49.424;8.420;2023-05-10T13:07:11;24.40;98.30
20856;DHT22;63058;49.424;8.420;2023-05-10T13:09:37;24.50;98.60
20856;DHT22;63058;49.424;8.420;2023-05-10T13:12:03;24.60;99.00
20856;DHT22;63058;49.424;8.420;2023-05-10T13:14:29;24.70;97.70
20856;DHT22;63058;49.424;8.420;2023-05-10T13:16:55;24.80;97.20
20856;DHT22;63058;49.424;8.420;2023-05-10T13:19:21;24.90;94.70
20856;DHT22;63058;49.424;8.420;2023-05-10T13:21:47;24.90;94.30
20856;DHT22;63058;49.424;8.420;2023-05-10T13:24:13;24.90;93.50
20856;DHT22;63058;49.424;8.420;2023-05-10T13:26:40;24.90;93.80
20856;DHT22;63058;49.424;8.420;2023-05-10T13:29:06;24.90;94.70
20856;DHT22;63058;49.424;8.420;2023-05-10T13:31:33;25.00;94.30
20856;DHT22;63058;49.424;8.420;2023-05-10T13:33:59;25.10;92.80
20856;DHT22;63058;49.424;8.420;2023-05-10T13:36:24;25.20;93.70
20856;DHT22;63058;49.424;8.420;2023-05-10T13:38:50;25.20;93.30
20856;DHT22;63058;49.424;8.420;2023-05-10T13:41:16;25.20;91.90
20856;DHT22;63058;49.424;8.420;2023-05-10T13:43:41;25.10;92.00
20856;DHT22;63058;49.424;8.420;2023-05-10T13:46:07;25.10;91.70
20856;DHT22;63058;49.424;8.420;2023-05-10T13:48:33;25.00;91.70
20856;DHT22;63058;49.424;8.420;2023-05-10T13:50:58;24.90;92.20
20856;DHT22;63058;49.424;8.420;2023-05-10T13:53:24;24.90;92.60
20856;DHT22;63058;49.424;8.420;2023-05-10T13:55:49;25.00;93.20
20856;DHT22;63058;49.424;8.420;2023-05-10T13:58:15;25.10;92.80
20856;DHT22;63058;49.424;8.420;2023-05-10T14:00:41;25.10;91.70
20856;DHT22;63058;49.424;8.420;2023-05-10T14:03:07;25.20;91.40
20856;DHT22;63058;49.424;8.420;2023-05-10T14:05:34;25.20;90.00
20856;DHT22;63058;49.424;8.420;2023-05-10T14:08:00;25.20;90.60
20856;DHT22;63058;49.424;8.420;2023-05-10T14:10:25;25.10;90.50
20856;DHT22;63058;49.424;8.420;2023-05-10T14:12:51;25.00;90.90
20856;DHT22;63058;49.424;8.420;2023-05-10T14:15:17;25.00;90.00
20856;DHT22;63058;49.424;8.420;2023-05-10T14:17:42;25.10;89.10
20856;DHT22;63058;49.424;8.420;2023-05-10T14:20:08;25.10;89.80
20856;DHT22;63058;49.424;8.420;2023-05-10T14:22:34;25.10;90.40
20856;DHT22;63058;49.424;8.420;2023-05-10T14:25:00;25.20;91.00
20856;DHT22;63058;49.424;8.420;2023-05-10T14:27:26;25.20;89.00
20856;DHT22;63058;49.424;8.420;2023-05-10T14:29:52;25.30;88.60
20856;DHT22;63058;49.424;8.420;2023-05-10T14:32:18;25.40;89.70
20856;DHT22;63058;49.424;8.420;2023-05-10T14:34:44;25.60;90.60
20856;DHT22;63058;49.424;8.420;2023-05-10T14:37:10;25.70;90.60
20856;DHT22;63058;49.424;8.420;2023-05-10T14:39:36;25.80;90.90
20856;DHT22;63058;49.424;8.420;2023-05-10T14:42:03;26.00;91.10
20856;DHT22;63058;49.424;8.420;2023-05-10T14:44:28;26.10;85.50
20856;DHT22;63058;49.424;8.420;2023-05-10T14:46:54;26.10;87.70
20856;DHT22;63058;49.424;8.420;2023-05-10T14:49:21;26.20;88.20
20856;DHT22;63058;49.424;8.420;2023-05-10T14:51:49;26.20;87.30
20856;DHT22;63058;49.424;8.420;2023-05-10T14:54:14;26.20;86.30
20856;DHT22;63058;49.424;8.420;2023-05-10T14:56:40;26.10;83.10
20856;DHT22;63058;49.424;8.420;2023-05-10T14:59:07;26.00;83.90
20856;DHT22;63058;49.424;8.420;2023-05-10T15:01:33;25.90;83.50
20856;DHT22;63058;49.424;8.420;2023-05-10T15:04:00;25.80;86.30
20856;DHT22;63058;49.424;8.420;2023-05-10T15:06:33;25.70;83.60
20856;DHT22;63058;49.424;8.420;2023-05-10T15:09:00;25.70;72.70
20856;DHT22;63058;49.424;8.420;2023-05-10T15:11:26;25.90;84.20
20856;DHT22;63058;49.424;8.420;2023-05-10T15:13:52;25.90;83.40
20856;DHT22;63058;49.424;8.420;2023-05-10T15:16:17;26.00;84.60
20856;DHT22;63058;49.424;8.420;2023-05-10T15:18:43;26.10;85.70
20856;DHT22;63058;49.424;8.420;2023-05-10T15:21:09;26.20;85.60
20856;DHT22;63058;49.424;8.420;2023-05-10T15:23:35;26.30;85.30
20856;DHT22;63058;49.424;8.420;2023-05-10T15:26:01;26.40;85.80
20856;DHT22;63058;49.424;8.420;2023-05-10T15:28:27;26.50;86.00
20856;DHT22;63058;49.424;8.420;2023-05-10T15:30:53;26.60;86.40
20856;DHT22;63058;49.424;8.420;2023-05-10T15:33:18;26.60;83.30
20856;DHT22;63058;49.424;8.420;2023-05-10T15:35:44;26.70;82.50
20856;DHT22;63058;49.424;8.420;2023-05-10T15:38:10;26.70;82.30
20856;DHT22;63058;49.424;8.420;2023-05-10T15:40:35;26.90;82.70
20856;DHT22;63058;49.424;8.420;2023-05-10T15:43:01;26.90;80.90
20856;DHT22;63058;49.424;8.420;2023-05-10T15:45:27;27.00;79.00
20856;DHT22;63058;49.424;8.420;2023-05-10T15:47:52;27.00;79.00
20856;DHT22;63058;49.424;8.420;2023-05-10T15:50:18;27.00;79.60
20856;DHT22;63058;49.424;8.420;2023-05-10T15:52:44;26.90;77.90
20856;DHT22;63058;49.424;8.420;2023-05-10T15:55:09;26.70;76.10
20856;DHT22;63058;49.424;8.420;2023-05-10T15:57:41;26.60;77.60
20856;DHT22;63058;49.424;8.420;2023-05-10T16:00:09;26.50;77.60
20856;DHT22;63058;49.424;8.420;2023-05-10T16:02:35;26.40;79.60
20856;DHT22;63058;49.424;8.420;2023-05-10T16:05:00;26.40;79.30
20856;DHT22;63058;49.424;8.420;2023-05-10T16:07:26;26.30;79.60
20856;DHT22;63058;49.424;8.420;2023-05-10T16:09:52;26.30;80.70
20856;DHT22;63058;49.424;8.420;2023-05-10T16:12:18;26.30;81.80
20856;DHT22;63058;49.424;8.420;2023-05-10T16:14:44;26.40;82.50
20856;DHT22;63058;49.424;8.420;2023-05-10T16:17:10;26.40;82.20
20856;DHT22;63058;49.424;8.420;2023-05-10T16:19:36;26.40;82.30
20856;DHT22;63058;49.424;8.420;2023-05-10T16:22:02;26.40;81.10
20856;DHT22;63058;49.424;8.420;2023-05-10T16:24:28;26.30;80.80
20856;DHT22;63058;49.424;8.420;2023-05-10T16:26:54;26.20;81.50
20856;DHT22;63058;49.424;8.420;2023-05-10T16:29:20;26.20;81.50
20856;DHT22;63058;49.424;8.420;2023-05-10T16:31:46;26.20;81.60
20856;DHT22;63058;49.424;8.420;2023-05-10T16:34:11;26.10;81.40
20856;DHT22;63058;49.424;8.420;2023-05-10T16:36:37;26.00;80.70
20856;DHT22;63058;49.424;8.420;2023-05-10T16:39:03;25.90;81.30
20856;DHT22;63058;49.424;8.420;2023-05-10T16:41:32;25.90;81.50
20856;DHT22;63058;49.424;8.420;2023-05-10T16:43:57;25.80;80.20
20856;DHT22;63058;49.424;8.420;2023-05-10T16:46:23;25.80;82.70
20856;DHT22;63058;49.424;8.420;2023-05-10T16:48:48;25.80;82.50
20856;DHT22;63058;49.424;8.420;2023-05-10T16:51:14;25.80;81.80
20856;DHT22;63058;49.424;8.420;2023-05-10T16:53:40;25.80;82.40
20856;DHT22;63058;49.424;8.420;2023-05-10T16:56:06;25.80;82.80
20856;DHT22;63058;49.424;8.420;2023-05-10T16:58:32;25.80;82.00
20856;DHT22;63058;49.424;8.420;2023-05-10T17:00:58;25.70;81.20
20856;DHT22;63058;49.424;8.420;2023-05-10T17:03:24;25.60;79.40
20856;DHT22;63058;49.424;8.420;2023-05-10T17:05:50;25.50;80.20
20856;DHT22;63058;49.424;8.420;2023-05-10T17:08:16;25.30;80.50
20856;DHT22;63058;49.424;8.420;2023-05-10T17:10:41;25.10;79.50
20856;DHT22;63058;49.424;8.420;2023-05-10T17:13:07;24.90;80.50
20856;DHT22;63058;49.424;8.420;2023-05-10T17:15:35;24.80;80.20
20856;DHT22;63058;49.424;8.420;2023-05-10T17:18:02;24.60;79.80
20856;DHT22;63058;49.424;8.420;2023-05-10T17:20:28;24.40;80.70
20856;DHT22;63058;49.424;8.420;2023-05-10T17:22:53;24.20;81.10
20856;DHT22;63058;49.424;8.420;2023-05-10T17:25:19;24.00;81.40
20856;DHT22;63058;49.424;8.420;2023-05-10T17:27:44;23.80;81.80
20856;DHT22;63058;49.424;8.420;2023-05-10T17:30:11;23.70;82.20
20856;DHT22;63058;49.424;8.420;2023-05-10T17:32:37;23.50;82.30
20856;DHT22;63058;49.424;8.420;2023-05-10T17:35:04;23.40;81.90
20856;DHT22;63058;49.424;8.420;2023-05-10T17:37:30;23.20;81.90
20856;DHT22;63058;49.424;8.420;2023-05-10T17:39:58;23.00;82.10
20856;DHT22;63058;49.424;8.420;2023-05-10T17:42:24;22.80;82.50
20856;DHT22;63058;49.424;8.420;2023-05-10T17:44:49;22.70;82.80
20856;DHT22;63058;49.424;8.420;2023-05-10T17:47:16;22.60;83.30
20856;DHT22;63058;49.424;8.420;2023-05-10T17:49:42;22.50;83.70
20856;DHT22;63058;49.424;8.420;2023-05-10T17:52:08;22.30;84.10
20856;DHT22;63058;49.424;8.420;2023-05-10T17:54:33;22.20;84.40
20856;DHT22;63058;49.424;8.420;2023-05-10T17:56:59;22.10;84.70
20856;DHT22;63058;49.424;8.420;2023-05-10T17:59:26;22.00;85.10
20856;DHT22;63058;49.424;8.420;2023-05-10T18:01:51;21.90;85.80
20856;DHT22;63058;49.424;8.420;2023-05-10T18:04:17;21.80;85.80
20856;DHT22;63058;49.424;8.420;2023-05-10T18:06:43;21.80;86.20
20856;DHT22;63058;49.424;8.420;2023-05-10T18:09:08;21.70;86.30
20856;DHT22;63058;49.424;8.420;2023-05-10T18:11:34;21.60;86.60
20856;DHT22;63058;49.424;8.420;2023-05-10T18:14:01;21.60;87.00
20856;DHT22;63058;49.424;8.420;2023-05-10T18:16:26;21.50;87.30
20856;DHT22;63058;49.424;8.420;2023-05-10T18:18:52;21.50;87.70
20856;DHT22;63058;49.424;8.420;2023-05-10T18:21:18;21.50;87.70
20856;DHT22;63058;49.424;8.420;2023-05-10T18:23:43;21.40;87.40
20856;DHT22;63058;49.424;8.420;2023-05-10T18:26:09;21.30;87.50
20856;DHT22;63058;49.424;8.420;2023-05-10T18:28:35;21.30;87.70
20856;DHT22;63058;49.424;8.420;2023-05-10T18:31:01;21.10;87.40
20856;DHT22;63058;49.424;8.420;2023-05-10T18:33:30;21.10;87.70
20856;DHT22;63058;49.424;8.420;2023-05-10T18:35:56;21.00;86.90
20856;DHT22;63058;49.424;8.420;2023-05-10T18:38:22;20.90;87.70
20856;DHT22;63058;49.424;8.420;2023-05-10T18:40:47;20.80;87.90
20856;DHT22;63058;49.424;8.420;2023-05-10T18:43:13;20.70;88.20
20856;DHT22;63058;49.424;8.420;2023-05-10T18:45:39;20.60;88.10
20856;DHT22;63058;49.424;8.420;2023-05-10T18:48:04;20.50;88.20
20856;DHT22;63058;49.424;8.420;2023-05-10T18:50:31;20.50;88.40
20856;DHT22;63058;49.424;8.420;2023-05-10T18:52:57;20.40;88.70
20856;DHT22;63058;49.424;8.420;2023-05-10T18:55:23;20.30;88.70
20856;DHT22;63058;49.424;8.420;2023-05-10T18:57:50;20.30;88.30
20856;DHT22;63058;49.424;8.420;2023-05-10T19:00:16;20.20;88.70
20856;DHT22;63058;49.424;8.420;2023-05-10T19:02:43;20.10;88.90
20856;DHT22;63058;49.424;8.420;2023-05-10T19:05:09;20.00;89.00
20856;DHT22;63058;49.424;8.420;2023-05-10T19:07:35;19.90;89.10
20856;DHT22;63058;49.424;8.420;2023-05-10T19:10:01;19.90;89.30
20856;DHT22;63058;49.424;8.420;2023-05-10T19:12:27;19.70;89.40
20856;DHT22;63058;49.424;8.420;2023-05-10T19:14:53;19.70;89.80
20856;DHT22;63058;49.424;8.420;2023-05-10T19:17:20;19.60;90.00
20856;DHT22;63058;49.424;8.420;2023-05-10T19:19:46;19.50;90.00
20856;DHT22;63058;49.424;8.420;2023-05-10T19:22:11;19.50;90.30
20856;DHT22;63058;49.424;8.420;2023-05-10T19:24:37;19.40;90.30
20856;DHT22;63058;49.424;8.420;2023-05-10T19:27:03;19.40;90.40
20856;DHT22;63058;49.424;8.420;2023-05-10T19:29:28;19.30;90.50
20856;DHT22;63058;49.424;8.420;2023-05-10T19:31:54;19.20;90.50
20856;DHT22;63058;49.424;8.420;2023-05-10T19:34:19;19.20;90.70
20856;DHT22;63058;49.424;8.420;2023-05-10T19:36:45;19.20;90.80
20856;DHT22;63058;49.424;8.420;2023-05-10T19:39:11;19.10;90.70
20856;DHT22;63058;49.424;8.420;2023-05-10T19:41:37;19.10;90.70
20856;DHT22;63058;49.424;8.420;2023-05-10T19:44:03;19.00;90.70
20856;DHT22;63058;49.424;8.420;2023-05-10T19:46:29;19.00;90.60
20856;DHT22;63058;49.424;8.420;2023-05-10T19:48:55;18.90;90.70
20856;DHT22;63058;49.424;8.420;2023-05-10T19:51:21;18.90;90.50
20856;DHT22;63058;49.424;8.420;2023-05-10T19:53:47;18.90;90.70
20856;DHT22;63058;49.424;8.420;2023-05-10T19:56:13;18.80;90.70
20856;DHT22;63058;49.424;8.420;2023-05-10T19:58:39;18.80;90.60
20856;DHT22;63058;49.424;8.420;2023-05-10T20:01:05;18.70;90.60
20856;DHT22;63058;49.424;8.420;2023-05-10T20:03:32;18.70;90.50
20856;DHT22;63058;49.424;8.420;2023-05-10T20:05:59;18.70;90.60
20856;DHT22;63058;49.424;8.420;2023-05-10T20:08:24;18.60;90.50
20856;DHT22;63058;49.424;8.420;2023-05-10T20:10:50;18.60;90.60
20856;DHT22;63058;49.424;8.420;2023-05-10T20:13:16;18.50;90.70
20856;DHT22;63058;49.424;8.420;2023-05-10T20:15:42;18.40;90.60
20856;DHT22;63058;49.424;8.420;2023-05-10T20:18:07;18.40;90.70
20856;DHT22;63058;49.424;8.420;2023-05-10T20:20:33;18.40;90.80
20856;DHT22;63058;49.424;8.420;2023-05-10T20:22:59;18.30;90.80
20856;DHT22;63058;49.424;8.420;2023-05-10T20:25:24;18.30;90.90
20856;DHT22;63058;49.424;8.420;2023-05-10T20:27:50;18.20;91.00
20856;DHT22;63058;49.424;8.420;2023-05-10T20:30:16;18.20;91.10
20856;DHT22;63058;49.424;8.420;2023-05-10T20:32:44;18.20;91.10
20856;DHT22;63058;49.424;8.420;2023-05-10T20:35:10;18.10;91.20
20856;DHT22;63058;49.424;8.420;2023-05-10T20:37:38;18.10;91.10
20856;DHT22;63058;49.424;8.420;2023-05-10T20:40:04;18.00;91.00
20856;DHT22;63058;49.424;8.420;2023-05-10T20:42:30;18.00;91.50
20856;DHT22;63058;49.424;8.420;2023-05-10T20:44:56;17.90;91.40
20856;DHT22;63058;49.424;8.420;2023-05-10T20:47:22;17.90;91.50
20856;DHT22;63058;49.424;8.420;2023-05-10T20:49:48;17.80;91.40
20856;DHT22;63058;49.424;8.420;2023-05-10T20:52:14;17.80;91.60
20856;DHT22;63058;49.424;8.420;2023-05-10T20:54:39;17.70;91.60
20856;DHT22;63058;49.424;8.420;2023-05-10T20:57:05;17.70;91.70
20856;DHT22;63058;49.424;8.420;2023-05-10T20:59:31;17.70;91.70
20856;DHT22;63058;49.424;8.420;2023-05-10T21:01:57;17.60;91.70
20856;DHT22;63058;49.424;8.420;2023-05-10T21:04:23;17.60;91.80
20856;DHT22;63058;49.424;8.420;2023-05-10T21:06:49;17.50;91.80
20856;DHT22;63058;49.424;8.420;2023-05-10T21:09:15;17.50;91.80
20856;DHT22;63058;49.424;8.420;2023-05-10T21:11:42;17.40;91.90
20856;DHT22;63058;49.424;8.420;2023-05-10T21:14:07;17.40;92.00
20856;DHT22;63058;49.424;8.420;2023-05-10T21:16:34;17.40;92.10
20856;DHT22;63058;49.424;8.420;2023-05-10T21:19:01;17.30;92.10
20856;DHT22;63058;49.424;8.420;2023-05-10T21:21:26;17.30;92.10
20856;DHT22;63058;49.424;8.420;2023-05-10T21:23:52;17.30;92.30
20856;DHT22;63058;49.424;8.420;2023-05-10T21:26:18;17.30;92.40
20856;DHT22;63058;49.424;8.420;2023-05-10T21:28:44;17.30;92.40
20856;DHT22;63058;49.424;8.420;2023-05-10T21:31:10;17.30;92.40
20856;DHT22;63058;49.424;8.420;2023-05-10T21:33:36;17.30;92.50
20856;DHT22;63058;49.424;8.420;2023-05-10T21:36:01;17.30;92.50
20856;DHT22;63058;49.424;8.420;2023-05-10T21:38:27;17.20;92.50
20856;DHT22;63058;49.424;8.420;2023-05-10T21:40:53;17.20;92.50
20856;DHT22;63058;49.424;8.420;2023-05-10T21:43:19;17.20;92.60
20856;DHT22;63058;49.424;8.420;2023-05-10T21:45:44;17.10;92.70
20856;DHT22;63058;49.424;8.420;2023-05-10T21:48:10;17.10;92.70
20856;DHT22;63058;49.424;8.420;2023-05-10T21:50:36;17.10;92.80